createdAt,value
2019-06-08T00:00:35.962Z,16.46
2019-06-08T00:01:41.465Z,16.52
2019-06-08T00:02:47.007Z,16.43
2019-06-08T00:03:52.550Z,16.50
2019-06-08T00:04:58.086Z,16.49
2019-06-08T00:06:03.629Z,16.49
2019-06-08T00:07:09.170Z,16.48
2019-06-08T00:08:14.846Z,16.49
2019-06-08T00:09:20.821Z,16.48
2019-06-08T00:10:26.058Z,16.48
2019-06-08T00:11:31.335Z,16.50
2019-06-08T00:12:36.875Z,16.53
2019-06-08T00:13:42.419Z,16.46
2019-06-08T00:14:47.954Z,16.50
2019-06-08T00:15:53.497Z,16.49
2019-06-08T00:16:59.039Z,16.58
2019-06-08T00:18:04.581Z,16.56
2019-06-08T00:19:10.116Z,16.57
2019-06-08T00:20:15.661Z,16.58
2019-06-08T00:21:21.752Z,16.60
2019-06-08T00:22:26.746Z,16.57
2019-06-08T00:23:32.285Z,16.57
2019-06-08T00:24:37.838Z,16.52
2019-06-08T00:25:43.365Z,16.52
2019-06-08T00:26:48.906Z,16.53
2019-06-08T00:27:54.449Z,16.52
2019-06-08T00:28:59.995Z,16.58
2019-06-08T00:30:05.529Z,16.58
2019-06-08T00:31:11.080Z,16.52
2019-06-08T00:32:16.612Z,16.57
2019-06-08T00:33:22.617Z,16.53
2019-06-08T00:34:27.694Z,16.56
2019-06-08T00:35:33.234Z,16.58
2019-06-08T00:36:38.776Z,16.53
2019-06-08T00:37:44.315Z,16.53
2019-06-08T00:38:49.855Z,16.53
2019-06-08T00:39:55.399Z,16.56
2019-06-08T00:41:00.935Z,16.52
2019-06-08T00:42:06.502Z,16.57
2019-06-08T00:43:12.020Z,16.56
2019-06-08T00:44:17.567Z,16.57
2019-06-08T00:45:23.586Z,16.56
2019-06-08T00:46:28.643Z,16.49
2019-06-08T00:47:46.971Z,16.53
2019-06-08T00:48:39.725Z,16.50
2019-06-08T00:49:45.294Z,16.46
2019-06-08T00:50:50.806Z,16.57
2019-06-08T00:51:56.345Z,16.53
2019-06-08T00:53:01.884Z,16.50
2019-06-08T00:54:07.429Z,16.45
2019-06-08T00:55:12.974Z,16.52
2019-06-08T00:57:24.052Z,16.48
2019-06-08T00:58:30.520Z,16.46
2019-06-08T00:59:35.131Z,16.42
2019-06-08T01:00:40.675Z,16.45
2019-06-08T01:01:46.214Z,16.46
2019-06-08T01:02:51.758Z,16.46
2019-06-08T01:03:57.299Z,16.46
2019-06-08T01:05:02.838Z,16.42
2019-06-08T01:06:08.379Z,16.39
2019-06-08T01:07:13.921Z,16.39
2019-06-08T01:08:20.690Z,16.45
2019-06-08T01:09:26.245Z,16.35
2019-06-08T01:10:30.542Z,16.34
2019-06-08T01:11:36.084Z,16.39
2019-06-08T01:12:41.622Z,16.33
2019-06-08T01:13:47.163Z,16.28
2019-06-08T01:14:52.705Z,16.27
2019-06-08T01:15:58.258Z,16.30
2019-06-08T01:17:03.786Z,16.31
2019-06-08T01:18:09.328Z,16.25
2019-06-08T01:19:14.873Z,16.25
2019-06-08T01:20:21.736Z,16.31
2019-06-08T01:21:25.951Z,16.31
2019-06-08T01:22:31.496Z,16.25
2019-06-08T01:23:37.029Z,16.28
2019-06-08T01:24:42.573Z,16.30
2019-06-08T01:25:48.116Z,16.35
2019-06-08T01:26:53.655Z,16.35
2019-06-08T01:27:59.195Z,16.33
2019-06-08T01:29:04.734Z,16.28
2019-06-08T01:30:10.279Z,16.34
2019-06-08T01:31:15.817Z,16.27
2019-06-08T01:32:22.295Z,16.24
2019-06-08T01:33:26.897Z,16.28
2019-06-08T01:34:32.438Z,16.27
2019-06-08T01:35:37.980Z,16.28
2019-06-08T01:36:43.523Z,16.24
2019-06-08T01:37:49.063Z,16.24
2019-06-08T01:38:54.600Z,16.17
2019-06-08T01:40:00.148Z,16.17
2019-06-08T01:41:05.684Z,16.20
2019-06-08T01:42:11.227Z,16.15
2019-06-08T01:43:16.766Z,16.15
2019-06-08T01:44:23.487Z,16.20
2019-06-08T01:45:27.922Z,16.20
2019-06-08T01:46:33.385Z,16.17
2019-06-08T01:47:38.929Z,16.08
2019-06-08T01:48:44.470Z,16.17
2019-06-08T01:49:50.011Z,16.08
2019-06-08T01:50:55.557Z,16.12
2019-06-08T01:52:01.096Z,16.08
2019-06-08T01:53:06.646Z,16.08
2019-06-08T01:54:12.171Z,16.09
2019-06-08T01:55:17.714Z,16.09
2019-06-08T01:56:23.256Z,16.04
2019-06-08T01:57:29.362Z,16.02
2019-06-08T01:58:34.334Z,16.07
2019-06-08T01:59:39.872Z,16.02
2019-06-08T02:00:45.414Z,16.04
2019-06-08T02:01:50.952Z,16.01
2019-06-08T02:02:56.495Z,15.93
2019-06-08T02:04:02.043Z,15.92
2019-06-08T02:05:07.588Z,15.78
2019-06-08T02:06:13.120Z,15.86
2019-06-08T02:07:18.660Z,15.82
2019-06-08T02:08:24.451Z,15.76
2019-06-08T02:09:30.618Z,15.82
2019-06-08T02:10:35.279Z,15.80
2019-06-08T02:11:40.826Z,15.71
2019-06-08T02:12:46.359Z,15.74
2019-06-08T02:13:51.909Z,15.71
2019-06-08T02:14:57.445Z,15.67
2019-06-08T02:16:03.002Z,15.72
2019-06-08T02:17:08.525Z,15.72
2019-06-08T02:18:14.065Z,15.69
2019-06-08T02:19:19.608Z,15.75
2019-06-08T02:20:26.282Z,15.74
2019-06-08T02:21:30.890Z,15.64
2019-06-08T02:22:36.233Z,15.62
2019-06-08T02:23:41.771Z,15.60
2019-06-08T02:24:47.316Z,15.60
2019-06-08T02:25:52.850Z,15.62
2019-06-08T02:26:58.391Z,15.62
2019-06-08T02:28:03.923Z,15.59
2019-06-08T02:29:09.470Z,15.62
2019-06-08T02:30:15.028Z,15.57
2019-06-08T02:31:20.553Z,15.64
2019-06-08T02:32:26.092Z,15.56
2019-06-08T02:33:32.501Z,15.60
2019-06-08T02:34:38.176Z,15.59
2019-06-08T02:35:42.716Z,15.47
2019-06-08T02:36:48.256Z,15.64
2019-06-08T02:37:53.809Z,15.59
2019-06-08T02:38:59.339Z,15.54
2019-06-08T02:40:04.878Z,15.56
2019-06-08T02:41:10.418Z,15.46
2019-06-08T02:42:15.956Z,15.49
2019-06-08T02:43:21.494Z,15.51
2019-06-08T02:44:28.293Z,15.50
2019-06-08T02:45:34.092Z,15.51
2019-06-08T02:46:40.123Z,15.43
2019-06-08T02:47:43.662Z,15.43
2019-06-08T02:49:03.599Z,15.36
2019-06-08T02:49:54.744Z,15.34
2019-06-08T02:51:00.279Z,15.36
2019-06-08T02:52:05.818Z,15.41
2019-06-08T02:53:11.361Z,15.34
2019-06-08T02:54:16.904Z,15.38
2019-06-08T02:55:22.450Z,15.38
2019-06-08T02:56:27.979Z,15.35
2019-06-08T02:57:35.451Z,15.38
2019-06-08T02:58:40.815Z,15.31
2019-06-08T02:59:44.611Z,15.35
2019-06-08T03:00:50.140Z,15.35
2019-06-08T03:01:55.683Z,15.35
2019-06-08T03:03:01.226Z,15.34
2019-06-08T03:04:06.783Z,15.29
2019-06-08T03:05:12.309Z,15.25
2019-06-08T03:06:17.853Z,15.28
2019-06-08T03:07:23.388Z,15.21
2019-06-08T03:08:28.927Z,15.25
2019-06-08T03:09:34.743Z,15.21
2019-06-08T03:10:41.300Z,15.21
2019-06-08T03:11:45.543Z,15.25
2019-06-08T03:12:51.087Z,15.23
2019-06-08T03:13:56.628Z,15.20
2019-06-08T03:15:02.163Z,15.16
2019-06-08T03:16:07.709Z,15.16
2019-06-08T03:17:13.244Z,15.16
2019-06-08T03:18:18.785Z,15.16
2019-06-08T03:19:24.338Z,15.19
2019-06-08T03:20:31.590Z,15.11
2019-06-08T03:21:36.305Z,15.19
2019-06-08T03:22:43.625Z,15.14
2019-06-08T03:23:46.488Z,15.19
2019-06-08T03:24:52.027Z,15.16
2019-06-08T03:25:57.567Z,15.11
2019-06-08T03:27:03.107Z,15.10
2019-06-08T03:28:08.651Z,15.10
2019-06-08T03:29:14.191Z,15.10
2019-06-08T03:30:20.092Z,15.10
2019-06-08T03:31:25.267Z,15.07
2019-06-08T03:32:30.815Z,15.07
2019-06-08T03:33:43.219Z,15.09
2019-06-08T03:34:51.181Z,15.07
2019-06-08T03:35:56.402Z,15.06
2019-06-08T03:36:56.751Z,15.07
2019-06-08T03:37:58.510Z,15.06
2019-06-08T03:39:04.045Z,15.11
2019-06-08T03:40:09.609Z,15.07
2019-06-08T03:41:15.131Z,15.07
2019-06-08T03:42:20.670Z,15.07
2019-06-08T03:43:26.211Z,14.99
2019-06-08T03:44:31.749Z,14.91
2019-06-08T03:45:38.234Z,15.02
2019-06-08T03:46:44.109Z,15.01
2019-06-08T03:47:48.372Z,14.99
2019-06-08T03:48:53.912Z,15.07
2019-06-08T03:49:59.462Z,15.03
2019-06-08T03:51:04.990Z,14.98
2019-06-08T03:52:10.534Z,14.98
2019-06-08T03:53:16.068Z,15.02
2019-06-08T03:54:21.614Z,14.99
2019-06-08T03:55:27.155Z,14.86
2019-06-08T03:56:32.690Z,14.88
2019-06-08T03:57:39.948Z,14.92
2019-06-08T03:58:46.051Z,14.96
2019-06-08T03:59:49.312Z,14.89
2019-06-08T04:00:54.854Z,14.96
2019-06-08T04:02:00.390Z,15.01
2019-06-08T04:03:05.932Z,14.84
2019-06-08T04:04:11.473Z,15.02
2019-06-08T04:05:17.007Z,14.86
2019-06-08T04:06:22.553Z,14.89
2019-06-08T04:07:28.105Z,14.86
2019-06-08T04:08:33.633Z,14.86
2019-06-08T04:09:39.818Z,14.91
2019-06-08T04:10:46.848Z,14.91
2019-06-08T04:11:50.384Z,14.95
2019-06-08T04:12:55.799Z,14.89
2019-06-08T04:14:01.334Z,14.99
2019-06-08T04:15:06.879Z,14.98
2019-06-08T04:16:12.411Z,14.96
2019-06-08T04:17:17.950Z,14.99
2019-06-08T04:18:23.493Z,15.01
2019-06-08T04:19:29.032Z,15.07
2019-06-08T04:20:34.579Z,15.02
2019-06-08T04:21:40.317Z,15.01
2019-06-08T04:22:47.199Z,15.03
2019-06-08T04:23:51.206Z,15.11
2019-06-08T04:24:56.734Z,15.13
2019-06-08T04:26:02.275Z,15.16
2019-06-08T04:27:07.812Z,15.14
2019-06-08T04:28:13.369Z,15.21
2019-06-08T04:29:18.897Z,15.27
2019-06-08T04:30:24.436Z,15.27
2019-06-08T04:31:29.972Z,15.27
2019-06-08T04:32:35.515Z,15.25
2019-06-08T04:33:42.085Z,15.21
2019-06-08T04:34:47.544Z,15.27
2019-06-08T04:35:52.135Z,15.19
2019-06-08T04:36:57.671Z,15.21
2019-06-08T04:38:03.216Z,15.21
2019-06-08T04:39:08.757Z,15.25
2019-06-08T04:40:14.294Z,15.19
2019-06-08T04:41:19.832Z,15.13
2019-06-08T04:42:25.371Z,15.25
2019-06-08T04:43:30.911Z,15.16
2019-06-08T04:44:38.415Z,15.09
2019-06-08T04:45:43.541Z,15.13
2019-06-08T04:46:49.420Z,15.16
2019-06-08T04:47:53.075Z,15.20
2019-06-08T04:48:58.615Z,15.20
2019-06-08T04:50:20.774Z,15.19
2019-06-08T04:51:09.692Z,15.25
2019-06-08T04:52:15.240Z,15.20
2019-06-08T04:53:20.780Z,15.17
2019-06-08T04:54:26.315Z,15.21
2019-06-08T04:55:31.859Z,15.23
2019-06-08T04:56:38.597Z,15.23
2019-06-08T04:57:43.349Z,15.23
2019-06-08T04:58:50.800Z,15.23
2019-06-08T04:59:54.017Z,15.23
2019-06-08T05:00:59.557Z,15.23
2019-06-08T05:02:05.092Z,15.16
2019-06-08T05:03:19.284Z,15.23
2019-06-08T05:05:20.673Z,15.27
2019-06-08T05:06:26.178Z,15.35
2019-06-08T05:07:31.720Z,15.38
2019-06-08T05:08:38.931Z,15.49
2019-06-08T05:09:43.061Z,15.62
2019-06-08T05:10:49.639Z,15.60
2019-06-08T05:11:53.877Z,15.65
2019-06-08T05:12:59.413Z,15.60
2019-06-08T05:14:04.952Z,15.64
2019-06-08T05:15:10.496Z,15.90
2019-06-08T05:16:16.036Z,16.15
2019-06-08T05:17:21.573Z,16.27
2019-06-08T05:18:27.113Z,16.46
2019-06-08T05:19:33.025Z,16.71
2019-06-08T05:20:40.964Z,16.94
2019-06-08T05:21:43.735Z,17.15
2019-06-08T05:22:49.772Z,17.37
2019-06-08T05:23:58.711Z,17.33
2019-06-08T05:25:00.355Z,17.25
2019-06-08T05:26:05.896Z,17.15
2019-06-08T05:27:11.433Z,16.98
2019-06-08T05:28:16.967Z,16.94
2019-06-08T05:29:22.507Z,16.93
2019-06-08T05:30:28.257Z,16.85
2019-06-08T05:31:33.589Z,16.82
2019-06-08T05:32:39.467Z,16.73
2019-06-08T05:33:45.515Z,16.61
2019-06-08T05:34:50.205Z,16.48
2019-06-08T05:35:55.744Z,16.39
2019-06-08T05:37:01.287Z,16.46
2019-06-08T05:38:06.823Z,16.49
2019-06-08T05:39:12.364Z,16.57
2019-06-08T05:40:17.908Z,16.68
2019-06-08T05:41:24.320Z,16.71
2019-06-08T05:42:28.991Z,16.83
2019-06-08T05:43:34.527Z,16.85
2019-06-08T05:44:40.065Z,17.00
2019-06-08T05:45:45.736Z,17.08
2019-06-08T05:46:51.150Z,17.33
2019-06-08T05:47:56.696Z,17.40
2019-06-08T05:49:02.235Z,17.62
2019-06-08T05:50:07.771Z,17.78
2019-06-08T05:51:13.309Z,17.89
2019-06-08T05:52:18.851Z,17.97
2019-06-08T05:53:24.390Z,18.10
2019-06-08T05:54:29.936Z,18.11
2019-06-08T05:55:35.475Z,18.08
2019-06-08T05:56:41.940Z,18.11
2019-06-08T05:57:46.557Z,18.14
2019-06-08T05:58:52.100Z,18.30
2019-06-08T05:59:57.642Z,18.29
2019-06-08T06:01:03.183Z,18.30
2019-06-08T06:02:08.725Z,18.48
2019-06-08T06:03:14.269Z,18.55
2019-06-08T06:04:19.806Z,18.62
2019-06-08T06:05:25.351Z,18.66
2019-06-08T06:06:30.895Z,18.66
2019-06-08T06:07:36.436Z,18.57
2019-06-08T06:08:42.491Z,18.41
2019-06-08T06:09:48.787Z,18.37
2019-06-08T06:10:53.056Z,18.33
2019-06-08T06:11:58.598Z,18.26
2019-06-08T06:13:04.136Z,18.30
2019-06-08T06:14:09.682Z,18.29
2019-06-08T06:15:15.219Z,18.26
2019-06-08T06:16:20.797Z,18.14
2019-06-08T06:17:26.309Z,18.07
2019-06-08T06:18:31.848Z,17.99
2019-06-08T06:19:37.387Z,17.81
2019-06-08T06:20:43.379Z,17.62
2019-06-08T06:21:49.221Z,17.48
2019-06-08T06:22:54.019Z,17.30
2019-06-08T06:23:59.559Z,17.30
2019-06-08T06:25:05.097Z,17.19
2019-06-08T06:26:10.637Z,17.03
2019-06-08T06:27:16.185Z,17.04
2019-06-08T06:28:21.722Z,16.89
2019-06-08T06:29:27.259Z,16.85
2019-06-08T06:30:32.806Z,16.82
2019-06-08T06:31:38.343Z,16.76
2019-06-08T06:32:43.914Z,16.73
2019-06-08T06:33:50.086Z,16.81
2019-06-08T06:34:54.969Z,16.86
2019-06-08T06:36:00.506Z,16.76
2019-06-08T06:37:06.049Z,16.82
2019-06-08T06:38:11.593Z,16.88
2019-06-08T06:39:17.129Z,17.06
2019-06-08T06:40:22.680Z,17.19
2019-06-08T06:41:28.215Z,17.23
2019-06-08T06:42:33.756Z,17.23
2019-06-08T06:43:39.297Z,17.15
2019-06-08T06:44:45.755Z,17.19
2019-06-08T06:45:50.383Z,17.41
2019-06-08T06:46:55.920Z,17.62
2019-06-08T06:48:01.464Z,17.79
2019-06-08T06:49:07.003Z,17.90
2019-06-08T06:50:12.543Z,17.97
2019-06-08T06:51:26.161Z,18.17
2019-06-08T06:52:23.628Z,18.25
2019-06-08T06:53:29.174Z,18.29
2019-06-08T06:54:34.710Z,18.35
2019-06-08T06:55:40.251Z,18.44
2019-06-08T06:56:45.792Z,18.57
2019-06-08T06:57:51.582Z,18.72
2019-06-08T06:58:56.877Z,18.78
2019-06-08T07:00:02.419Z,18.92
2019-06-08T07:01:07.959Z,18.91
2019-06-08T07:02:13.499Z,18.94
2019-06-08T07:03:19.042Z,18.88
2019-06-08T07:04:24.590Z,18.85
2019-06-08T07:05:30.125Z,18.72
2019-06-08T07:06:35.664Z,18.62
2019-06-08T07:07:41.207Z,18.72
2019-06-08T07:08:46.748Z,18.69
2019-06-08T07:09:52.720Z,18.67
2019-06-08T07:10:57.834Z,18.57
2019-06-08T07:12:03.373Z,18.55
2019-06-08T07:13:08.917Z,18.37
2019-06-08T07:14:14.457Z,18.44
2019-06-08T07:15:19.997Z,18.39
2019-06-08T07:16:25.540Z,18.37
2019-06-08T07:17:31.083Z,18.44
2019-06-08T07:18:36.630Z,18.48
2019-06-08T07:19:42.164Z,18.37
2019-06-08T07:20:48.130Z,18.50
2019-06-08T07:21:54.746Z,18.63
2019-06-08T07:22:59.078Z,18.80
2019-06-08T07:24:04.337Z,18.88
2019-06-08T07:25:09.876Z,18.99
2019-06-08T07:26:15.420Z,19.00
2019-06-08T07:27:20.978Z,19.06
2019-06-08T07:28:26.499Z,19.07
2019-06-08T07:29:32.044Z,19.10
2019-06-08T07:30:37.593Z,19.14
2019-06-08T07:31:43.129Z,19.16
2019-06-08T07:32:49.180Z,19.26
2019-06-08T07:33:55.695Z,19.32
2019-06-08T07:34:59.756Z,19.36
2019-06-08T07:36:05.294Z,19.54
2019-06-08T07:37:10.851Z,19.55
2019-06-08T07:38:16.376Z,19.55
2019-06-08T07:41:04.620Z,19.74
2019-06-08T07:42:10.143Z,19.59
2019-06-08T07:44:08.582Z,19.37
2019-06-08T07:45:14.118Z,19.25
2019-06-08T07:47:24.143Z,19.16
2019-06-08T07:48:29.670Z,19.07
2019-06-08T07:49:35.211Z,19.22
2019-06-08T07:50:40.752Z,19.11
2019-06-08T07:51:58.872Z,19.36
2019-06-08T07:52:52.867Z,19.44
2019-06-08T07:53:57.382Z,19.48
2019-06-08T07:55:02.916Z,19.46
2019-06-08T07:56:08.459Z,19.44
2019-06-08T07:57:13.998Z,19.44
2019-06-08T07:58:19.538Z,19.50
2019-06-08T07:59:25.084Z,19.59
2019-06-08T08:00:30.696Z,19.63
2019-06-08T08:01:36.784Z,19.77
2019-06-08T08:02:41.705Z,19.81
2019-06-08T08:03:47.938Z,19.94
2019-06-08T08:04:52.790Z,19.94
2019-06-08T08:05:58.643Z,20.02
2019-06-08T08:07:03.870Z,20.08
2019-06-08T08:08:09.414Z,20.06
2019-06-08T08:09:14.953Z,20.02
2019-06-08T08:10:20.499Z,19.98
2019-06-08T08:11:26.032Z,19.98
2019-06-08T08:12:31.581Z,19.77
2019-06-08T08:13:37.126Z,19.83
2019-06-08T08:14:42.658Z,19.73
2019-06-08T08:15:49.057Z,19.77
2019-06-08T08:16:54.937Z,19.78
2019-06-08T08:17:59.654Z,19.77
2019-06-08T08:19:04.822Z,19.88
2019-06-08T08:20:10.373Z,20.03
2019-06-08T08:21:23.140Z,20.03
2019-06-08T08:22:25.853Z,20.03
2019-06-08T08:23:27.457Z,20.10
2019-06-08T08:24:32.532Z,20.06
2019-06-08T08:25:38.077Z,20.02
2019-06-08T08:26:43.618Z,19.92
2019-06-08T08:27:50.304Z,19.87
2019-06-08T08:28:55.263Z,19.76
2019-06-08T08:30:01.793Z,19.69
2019-06-08T08:31:07.900Z,19.74
2019-06-08T08:32:11.333Z,19.77
2019-06-08T08:33:18.382Z,19.80
2019-06-08T08:34:22.417Z,19.74
2019-06-08T08:35:28.124Z,19.77
2019-06-08T08:36:33.579Z,19.65
2019-06-08T08:37:39.048Z,19.59
2019-06-08T08:38:44.585Z,19.46
2019-06-08T08:39:51.512Z,19.47
2019-06-08T08:40:59.362Z,19.39
2019-06-08T08:42:04.848Z,19.29
2019-06-08T08:43:06.764Z,19.31
2019-06-08T08:44:12.299Z,19.36
2019-06-08T08:45:18.318Z,19.36
2019-06-08T08:46:23.381Z,19.32
2019-06-08T08:49:13.110Z,19.55
2019-06-08T08:50:18.369Z,19.63
2019-06-08T08:51:23.180Z,19.54
2019-06-08T08:52:36.396Z,19.55
2019-06-08T08:53:34.269Z,19.62
2019-06-08T08:54:42.670Z,19.63
2019-06-08T08:55:45.343Z,19.80
2019-06-08T08:56:54.729Z,19.98
2019-06-08T08:57:58.753Z,20.02
2019-06-08T08:59:02.893Z,20.02
2019-06-08T09:00:08.591Z,20.08
2019-06-08T09:01:13.056Z,20.08
2019-06-08T09:02:21.226Z,20.01
2019-06-08T09:03:29.429Z,19.95
2019-06-08T09:04:29.679Z,19.80
2019-06-08T09:05:35.222Z,19.76
2019-06-08T09:06:40.764Z,19.66
2019-06-08T09:07:48.286Z,19.68
2019-06-08T09:08:52.566Z,19.81
2019-06-08T09:10:00.449Z,19.86
2019-06-08T09:11:03.782Z,19.95
2019-06-08T09:12:08.493Z,20.03
2019-06-08T09:13:14.010Z,20.10
2019-06-08T09:14:19.558Z,20.18
2019-06-08T09:15:25.088Z,20.36
2019-06-08T09:16:30.634Z,20.39
2019-06-08T09:17:38.574Z,20.42
2019-06-08T09:18:41.713Z,20.31
2019-06-08T09:19:48.074Z,20.17
2019-06-08T09:20:53.872Z,20.05
2019-06-08T09:22:00.435Z,20.01
2019-06-08T09:23:14.698Z,19.95
2019-06-08T09:24:09.646Z,19.71
2019-06-08T09:25:14.986Z,19.54
2019-06-08T09:26:20.530Z,19.41
2019-06-08T09:27:27.979Z,19.25
2019-06-08T09:28:31.599Z,19.13
2019-06-08T09:29:38.858Z,19.16
2019-06-08T09:30:42.678Z,19.16
2019-06-08T09:31:49.034Z,19.33
2019-06-08T09:32:54.413Z,19.37
2019-06-08T09:34:08.321Z,19.32
2019-06-08T09:35:04.945Z,19.33
2019-06-08T09:36:10.390Z,19.21
2019-06-08T09:37:18.338Z,19.08
2019-06-08T09:38:21.474Z,19.08
2019-06-08T09:39:28.633Z,19.08
2019-06-08T09:40:32.773Z,19.19
2019-06-08T09:41:38.161Z,19.14
2019-06-08T09:42:43.644Z,19.28
2019-06-08T09:43:49.186Z,19.40
2019-06-08T09:44:55.418Z,19.36
2019-06-08T09:46:02.095Z,19.47
2019-06-08T09:47:12.096Z,19.54
2019-06-08T09:48:11.374Z,19.62
2019-06-08T09:49:18.822Z,19.71
2019-06-08T09:50:22.436Z,19.80
2019-06-08T09:51:28.628Z,19.80
2019-06-08T09:52:33.521Z,19.80
2019-06-08T09:53:41.729Z,19.61
2019-06-08T09:54:44.621Z,19.51
2019-06-08T09:55:50.159Z,19.29
2019-06-08T09:56:55.817Z,19.37
2019-06-08T09:58:05.097Z,19.21
2019-06-08T09:59:10.449Z,19.36
2019-06-08T10:00:18.085Z,19.28
2019-06-08T10:01:18.476Z,19.25
2019-06-08T10:02:23.413Z,19.26
2019-06-08T10:03:30.806Z,19.10
2019-06-08T10:04:34.487Z,19.00
2019-06-08T10:05:40.024Z,19.00
2019-06-08T10:06:47.812Z,18.91
2019-06-08T10:07:51.115Z,18.80
2019-06-08T10:08:56.651Z,18.85
2019-06-08T10:10:03.072Z,18.87
2019-06-08T10:11:09.743Z,18.92
2019-06-08T10:12:13.277Z,19.04
2019-06-08T10:13:19.091Z,19.10
2019-06-08T10:14:24.396Z,19.28
2019-06-08T10:15:29.913Z,19.36
2019-06-08T10:16:38.005Z,19.51
2019-06-08T10:17:41.011Z,19.76
2019-06-08T10:18:51.154Z,19.99
2019-06-08T10:19:52.088Z,20.21
2019-06-08T10:21:00.657Z,20.36
2019-06-08T10:22:03.168Z,20.31
2019-06-08T10:23:27.080Z,20.14
2019-06-08T10:24:14.245Z,20.05
2019-06-08T10:25:19.777Z,19.87
2019-06-08T10:26:27.817Z,19.74
2019-06-08T10:27:30.882Z,19.68
2019-06-08T10:28:38.884Z,19.66
2019-06-08T10:29:41.957Z,19.54
2019-06-08T10:30:48.544Z,19.37
2019-06-08T10:31:53.059Z,19.36
2019-06-08T10:33:01.784Z,19.22
2019-06-08T10:34:05.612Z,19.14
2019-06-08T10:35:10.438Z,19.16
2019-06-08T10:36:15.203Z,19.18
2019-06-08T10:37:20.759Z,19.18
2019-06-08T10:38:28.796Z,19.33
2019-06-08T10:39:31.827Z,19.56
2019-06-08T10:40:38.335Z,19.87
2019-06-08T10:41:42.914Z,20.11
2019-06-08T10:42:48.461Z,20.33
2019-06-08T10:43:54.002Z,20.41
2019-06-08T10:45:04.326Z,20.57
2019-06-08T10:46:09.992Z,20.55
2019-06-08T10:47:11.987Z,20.61
2019-06-08T10:48:17.924Z,20.47
2019-06-08T10:49:21.707Z,20.43
2019-06-08T10:50:28.811Z,20.38
2019-06-08T10:51:32.790Z,20.23
2019-06-08T10:52:39.137Z,20.08
2019-06-08T10:53:49.132Z,19.94
2019-06-08T10:54:49.430Z,19.73
2019-06-08T10:55:54.960Z,19.59
2019-06-08T10:57:04.109Z,19.47
2019-06-08T10:58:07.274Z,19.55
2019-06-08T10:59:12.263Z,19.33
2019-06-08T11:00:21.841Z,19.44
2019-06-08T11:01:22.689Z,19.43
2019-06-08T11:02:28.396Z,19.37
2019-06-08T11:03:33.763Z,19.32
2019-06-08T11:04:43.186Z,19.32
2019-06-08T11:05:44.839Z,19.31
2019-06-08T11:06:50.391Z,19.18
2019-06-08T11:07:58.834Z,19.18
2019-06-08T11:09:04.223Z,19.19
2019-06-08T11:10:10.841Z,19.18
2019-06-08T11:11:12.589Z,19.31
2019-06-08T11:12:18.453Z,19.44
2019-06-08T11:13:23.628Z,19.51
2019-06-08T11:14:29.198Z,19.68
2019-06-08T11:15:34.723Z,19.65
2019-06-08T11:16:40.264Z,19.65
2019-06-08T11:17:45.797Z,19.58
2019-06-08T11:18:51.366Z,19.51
2019-06-08T11:19:59.378Z,19.43
2019-06-08T11:21:03.639Z,19.46
2019-06-08T11:22:13.870Z,19.36
2019-06-08T11:23:13.519Z,19.16
2019-06-08T11:24:24.595Z,18.94
2019-06-08T11:25:24.592Z,18.87
2019-06-08T11:26:30.142Z,18.82
2019-06-08T11:27:35.677Z,18.81
2019-06-08T11:28:41.218Z,18.63
2019-06-08T11:29:47.719Z,18.60
2019-06-08T11:30:52.306Z,18.57
2019-06-08T11:33:30.500Z,18.55
2019-06-08T11:34:37.475Z,18.51
2019-06-08T11:36:45.374Z,18.48
2019-06-08T11:37:50.890Z,18.44
2019-06-08T11:40:00.401Z,18.42
2019-06-08T11:41:09.584Z,18.51
2019-06-08T11:43:15.471Z,18.60
2019-06-08T11:44:20.981Z,18.69
2019-06-08T11:45:26.530Z,18.76
2019-06-08T11:46:32.069Z,18.80
2019-06-08T11:47:39.170Z,18.85
2019-06-08T11:48:43.149Z,18.95
2019-06-08T11:49:50.067Z,19.08
2019-06-08T11:50:54.222Z,19.29
2019-06-08T11:52:00.457Z,19.54
2019-06-08T11:53:07.157Z,19.54
2019-06-08T11:54:27.119Z,19.74
2019-06-08T11:55:18.114Z,19.87
2019-06-08T11:56:21.925Z,19.96
2019-06-08T11:57:28.325Z,20.02
2019-06-08T11:58:33.006Z,20.03
2019-06-08T11:59:38.550Z,20.06
2019-06-08T12:00:44.091Z,20.14
2019-06-08T12:01:50.482Z,20.10
2019-06-08T12:02:55.172Z,20.16
2019-06-08T12:04:01.581Z,19.92
2019-06-08T12:05:08.695Z,19.71
2019-06-08T12:06:14.127Z,19.54
2019-06-08T12:07:17.337Z,19.46
2019-06-08T12:08:22.876Z,19.32
2019-06-08T12:09:28.742Z,19.43
2019-06-08T12:10:33.987Z,19.61
2019-06-08T12:11:39.506Z,19.66
2019-06-08T12:12:45.039Z,19.73
2019-06-08T12:13:50.579Z,19.80
2019-06-08T12:14:58.207Z,19.80
2019-06-08T12:16:02.961Z,19.71
2019-06-08T12:17:10.843Z,19.69
2019-06-08T12:18:14.068Z,19.65
2019-06-08T12:19:20.802Z,19.71
2019-06-08T12:20:24.510Z,19.48
2019-06-08T12:21:29.368Z,19.50
2019-06-08T12:22:34.910Z,19.55
2019-06-08T12:23:40.449Z,19.54
2019-06-08T12:24:45.991Z,19.50
2019-06-08T12:25:51.527Z,19.43
2019-06-08T12:27:08.016Z,19.32
2019-06-08T12:28:02.611Z,19.33
2019-06-08T12:29:09.943Z,19.46
2019-06-08T12:30:20.527Z,19.55
2019-06-08T12:31:22.273Z,19.63
2019-06-08T12:32:24.785Z,19.86
2019-06-08T12:33:30.760Z,19.99
2019-06-08T12:34:38.222Z,20.01
2019-06-08T12:35:41.410Z,20.11
2019-06-08T12:36:48.089Z,20.11
2019-06-08T12:37:52.489Z,20.13
2019-06-08T12:38:58.613Z,20.24
2019-06-08T12:40:03.574Z,20.33
2019-06-08T12:41:11.049Z,20.43
2019-06-08T12:42:20.010Z,20.57
2019-06-08T12:43:20.406Z,20.69
2019-06-08T12:44:28.923Z,20.62
2019-06-08T12:45:31.286Z,20.66
2019-06-08T12:46:40.869Z,20.64
2019-06-08T12:47:42.379Z,20.59
2019-06-08T12:48:47.915Z,20.74
2019-06-08T12:49:53.459Z,20.67
2019-06-08T12:50:58.999Z,20.66
2019-06-08T12:52:04.540Z,20.64
2019-06-08T12:53:14.464Z,20.66
2019-06-08T12:54:16.867Z,20.57
2019-06-08T12:55:25.056Z,20.50
2019-06-08T12:56:28.602Z,20.43
2019-06-08T12:57:32.250Z,20.50
2019-06-08T12:58:38.684Z,20.47
2019-06-08T12:59:45.435Z,20.39
2019-06-08T13:00:48.881Z,20.42
2019-06-08T13:01:54.421Z,20.38
2019-06-08T13:02:59.965Z,20.41
2019-06-08T13:04:05.507Z,20.47
2019-06-08T13:05:13.928Z,20.51
2019-06-08T13:06:18.318Z,20.58
2019-06-08T13:07:22.135Z,20.62
2019-06-08T13:08:28.652Z,20.80
2019-06-08T13:09:33.222Z,20.97
2019-06-08T13:10:38.768Z,21.01
2019-06-08T13:11:44.307Z,21.06
2019-06-08T13:12:49.844Z,20.97
2019-06-08T13:13:55.389Z,21.01
2019-06-08T13:15:00.930Z,21.27
2019-06-08T13:16:06.476Z,21.07
2019-06-08T13:17:13.113Z,21.01
2019-06-08T13:18:19.820Z,20.80
2019-06-08T13:19:23.104Z,20.74
2019-06-08T13:20:28.652Z,20.61
2019-06-08T13:21:35.563Z,20.57
2019-06-08T13:22:39.729Z,20.48
2019-06-08T13:23:45.275Z,20.48
2019-06-08T13:24:50.814Z,20.32
2019-06-08T13:25:56.356Z,20.20
2019-06-08T13:27:01.901Z,20.23
2019-06-08T13:28:12.227Z,20.20
2019-06-08T13:29:13.759Z,20.24
2019-06-08T13:30:23.344Z,20.18
2019-06-08T13:31:24.735Z,20.28
2019-06-08T13:32:29.612Z,20.26
2019-06-08T13:33:35.151Z,20.29
2019-06-08T13:34:40.697Z,20.42
2019-06-08T13:35:48.039Z,20.50
2019-06-08T13:36:51.781Z,20.67
2019-06-08T13:37:57.639Z,20.66
2019-06-08T13:39:02.869Z,20.74
2019-06-08T13:40:08.414Z,20.76
2019-06-08T13:41:14.971Z,20.77
2019-06-08T13:42:21.839Z,20.59
2019-06-08T13:43:25.039Z,20.59
2019-06-08T13:44:30.582Z,20.51
2019-06-08T13:45:39.041Z,20.48
2019-06-08T13:46:41.669Z,20.47
2019-06-08T13:47:50.229Z,20.48
2019-06-08T13:48:52.755Z,20.50
2019-06-08T13:49:58.291Z,20.48
2019-06-08T13:51:03.836Z,20.36
2019-06-08T13:52:09.380Z,20.35
2019-06-08T13:53:17.912Z,20.24
2019-06-08T13:54:22.581Z,20.11
2019-06-08T13:55:42.244Z,20.13
2019-06-08T13:56:31.569Z,20.14
2019-06-08T13:57:37.956Z,20.02
2019-06-08T13:58:42.635Z,19.87
2019-06-08T13:59:48.426Z,19.84
2019-06-08T14:00:56.594Z,19.76
2019-06-08T14:01:59.263Z,19.78
2019-06-08T14:03:04.801Z,19.84
2019-06-08T14:04:10.346Z,19.73
2019-06-08T14:05:21.058Z,19.69
2019-06-08T14:06:22.186Z,19.68
2019-06-08T14:07:31.696Z,19.71
2019-06-08T14:08:33.154Z,19.78
2019-06-08T14:09:38.339Z,19.76
2019-06-08T14:10:43.597Z,19.91
2019-06-08T14:11:49.138Z,19.96
2019-06-08T14:12:54.683Z,20.01
2019-06-08T14:14:01.328Z,20.02
2019-06-08T14:15:05.777Z,20.23
2019-06-08T14:16:11.703Z,20.29